Kristin D — C6XA6 — position and weather

sailwx.info

Track history (hours):
 
Tides and Currents Weather Stations Pressure Air Temp Water Temp Dewpoint Dewpoint Depression Visibility Wind Speed Wind Dir Waves Ship Positions

Kristin D

Last reported at 2015-May-21 15:21 UTC. Time now 2015-May-25 17:38 UTC.
Position N 66°12' E 012°46'.

Length 90 m; draft 4.2 m.

Type: Cargo ship. MMSI: 311003700.

Date/timePositionNaut miles runAvg speedWind from/ knotsBaromVisibWave heightAir tempDewpointWater temp
2015-May-21 15:21N 66°12' E 012°46'7 8.8
2015-May-21 14:33N 66°15' E 012°31'159 9.9
2015-May-20 22:33N 63°58' E 009°21'1410.7
2015-May-20 21:16N 63°44' E 009°16'7 9.4
2015-May-20 20:32N 63°37' E 009°19'1010.0
2015-May-20 19:29N 63°39' E 009°43'1010.5
2015-May-20 18:33N 63°31' E 009°55'10 9.8
2015-May-20 17:33N 63°29' E 010°16'1110.6
2015-May-20 16:33N 63°27' E 010°39'4 4.0
2015-May-20 15:31N 63°25' E 010°47'0 0.0
2015-May-20 14:31N 63°25' E 010°47'0 0.0
2015-May-20 13:31N 63°25' E 010°47'0 0.0
2015-May-20 12:31N 63°25' E 010°47'0 0.0
2015-May-20 11:31N 63°25' E 010°47'0 0.0
2015-May-20 10:31N 63°25' E 010°47'0 0.0
2015-May-20 09:28N 63°25' E 010°47'0 0.0
2015-May-20 08:28N 63°25' E 010°47'0 0.0
2015-May-20 07:31N 63°25' E 010°47'0 0.0
2015-May-20 06:28N 63°25' E 010°47'0 0.0
2015-May-20 05:31N 63°25' E 010°47'0 0.0
2015-May-20 04:31N 63°25' E 010°47'0 0.0
2015-May-20 03:31N 63°25' E 010°47'0 0.0
2015-May-20 02:31N 63°25' E 010°47'0 0.0
2015-May-20 01:28N 63°25' E 010°47'0 0.0
2015-May-20 00:31N 63°25' E 010°47'0 0.0
2015-May-19 23:31N 63°25' E 010°47'0 0.0
2015-May-19 22:31N 63°25' E 010°47'0 0.0
2015-May-19 21:31N 63°25' E 010°47'0 0.0
2015-May-19 20:31N 63°25' E 010°47'0 0.0
2015-May-19 19:31N 63°25' E 010°47'0 0.0
2015-May-19 18:31N 63°25' E 010°47'0 0.0
2015-May-19 17:31N 63°25' E 010°47'0 0.0
2015-May-19 15:31N 63°25' E 010°47'0 0.0
2015-May-19 14:31N 63°25' E 010°47'0 0.0
2015-May-19 13:31N 63°25' E 010°47'0 0.0
2015-May-19 12:34N 63°25' E 010°47'0 0.0
2015-May-19 11:31N 63°25' E 010°47'0 0.0
2015-May-19 10:33N 63°25' E 010°47'0 0.0
2015-May-19 09:30N 63°25' E 010°47'0 0.0
2015-May-19 08:33N 63°25' E 010°47'0 0.0
2015-May-19 07:33N 63°25' E 010°47'0 0.0
2015-May-19 06:30N 63°25' E 010°47'0 0.0
2015-May-19 05:33N 63°25' E 010°47'0 0.0
2015-May-19 04:30N 63°25' E 010°47'0 0.0
2015-May-19 03:33N 63°25' E 010°47'0 0.0
2015-May-19 02:33N 63°25' E 010°47'0 0.0
2015-May-19 01:33N 63°25' E 010°47'0 0.0
2015-May-18 22:18N 63°25' E 010°47'0 0.0
2015-May-18 21:24N 63°25' E 010°47'0 0.0
2015-May-18 20:33N 63°25' E 010°47'0 0.0
2015-May-18 19:30N 63°25' E 010°47'0 0.0
2015-May-18 18:33N 63°25' E 010°47'7 6.8
2015-May-18 17:33N 63°28' E 010°33'8 7.9
2015-May-18 16:33N 63°28' E 010°16'10 9.7
2015-May-18 15:33N 63°30' E 009°54'1110.1
2015-May-18 14:29N 63°39' E 009°42'1010.3
2015-May-18 13:33N 63°35' E 009°24'  
2015-May-16 04:31N 59°13' E 005°02'1010.0
2015-May-16 03:34N 59°07' E 005°17'1010.0
2015-May-16 02:33N 59°03' E 005°35'9 8.6
2015-May-16 01:33N 58°57' E 005°46'0 0.3
2015-May-16 00:31N 58°57' E 005°45'0 0.0
2015-May-15 23:31N 58°57' E 005°45'0 0.0
2015-May-15 22:31N 58°57' E 005°45'0 0.0
2015-May-15 21:31N 58°57' E 005°45'0 0.0
2015-May-15 20:32N 58°57' E 005°45'0 0.0
2015-May-15 19:31N 58°57' E 005°45'0 0.0
2015-May-15 18:31N 58°57' E 005°45'0 0.0
2015-May-15 17:31N 58°57' E 005°45'0 0.0
2015-May-15 16:22N 58°57' E 005°45'0 0.0
2015-May-15 15:22N 58°57' E 005°45'0 0.0
2015-May-15 14:25N 58°57' E 005°45'0 0.0
2015-May-15 13:25N 58°57' E 005°45'0 0.0
2015-May-15 12:25N 58°57' E 005°45'0 0.0
2015-May-15 11:25N 58°57' E 005°45'0 0.0
2015-May-15 10:25N 58°57' E 005°45'0 0.0
2015-May-15 09:28N 58°57' E 005°45'0 0.0
2015-May-15 08:29N 58°57' E 005°45'5 5.1
2015-May-15 07:33N 59°01' E 005°42'8 7.5
2015-May-15 06:33N 58°55' E 005°33'10 9.5
2015-May-15 05:33N 58°47' E 005°23'1610.7
2015-May-15 04:04N 58°32' E 005°35'611.0
2015-May-15 03:31N 58°28' E 005°41'1111.2
2015-May-15 02:34N 58°20' E 005°57'1211.7
2015-May-15 01:33N 58°13' E 006°13'11411.4
2015-May-14 15:32N 57°51' E 009°45'1111.3
2015-May-14 14:33N 57°50' E 010°06'1110.9
2015-May-14 13:33N 57°49' E 010°26'1110.5
2015-May-14 12:33N 57°48' E 010°46'1110.7
2015-May-14 11:33N 57°41' E 011°01'1211.5
2015-May-14 10:33N 57°33' E 011°16'1111.3
2015-May-14 09:33N 57°24' E 011°28'1211.6
2015-May-14 08:33N 57°13' E 011°36'1312.3
2015-May-14 07:31N 57°01' E 011°43'1111.7
2015-May-14 06:33N 56°50' E 011°51'1111.1
2015-May-14 05:33N 56°40' E 011°56'1110.7
2015-May-14 04:33N 56°30' E 012°04'1111.0
2015-May-14 03:31N 56°20' E 012°15'1111.2
2015-May-14 02:33N 56°12' E 012°27'1110.7
2015-May-14 01:33N 56°04' E 012°39'1110.5
2015-May-14 00:33N 55°53' E 012°44'1110.9
2015-May-13 23:33N 55°43' E 012°41'1110.9
2015-May-13 22:33N 55°32' E 012°43'1111.5
2015-May-13 21:33N 55°20' E 012°41'10 9.8
2015-May-13 20:33N 55°16' E 012°56'1010.2
2015-May-13 19:33N 55°16' E 013°14'10 9.6
2015-May-13 18:33N 55°19' E 013°30'13 0.7
2015-May-13 01:26N 55°26' E 013°49'2 0.2
2015-May-12 16:34N 55°24' E 013°49'5 5.4
2015-May-12 15:33N 55°18' E 013°50'9 9.4
2015-May-12 14:33N 55°09' E 013°53'1212.3
2015-May-12 13:33N 54°57' E 013°57'1212.4
2015-May-12 12:34N 54°45' E 014°03'1212.4
2015-May-12 11:33N 54°33' E 014°06'1212.4
2015-May-12 10:33N 54°21' E 014°10'1212.3
2015-May-12 09:33N 54°09' E 014°13'1111.1
2015-May-12 08:33N 53°58' E 014°16'8 7.5
2015-May-12 07:27N 53°49' E 014°19'1011.3
2015-May-12 06:33N 53°42' E 014°30'1110.6
2015-May-12 05:33N 53°32' E 014°38'7 6.6
2015-May-12 04:33N 53°26' E 014°35'0 0.0
2015-May-12 03:33N 53°26' E 014°35'0 0.0
2015-May-12 02:33N 53°26' E 014°35'0 0.0
2015-May-12 01:33N 53°26' E 014°35'0 0.0
2015-May-12 00:33N 53°26' E 014°35'0 0.0
2015-May-11 23:33N 53°26' E 014°35'0 0.0
2015-May-11 22:33N 53°26' E 014°35'0 0.0
2015-May-11 21:33N 53°26' E 014°35'0 0.0
2015-May-11 20:33N 53°26' E 014°35'0 0.0
2015-May-11 19:33N 53°26' E 014°35'0 0.0
2015-May-11 18:33N 53°26' E 014°35'0 0.0
2015-May-11 17:33N 53°26' E 014°35'0 0.0
2015-May-11 16:33N 53°26' E 014°35'0 0.0
2015-May-11 15:33N 53°26' E 014°35'  
Track history (hours):
 
Tides and Currents Weather Stations Pressure Air Temp Water Temp Dewpoint Dewpoint Depression Visibility Wind Speed Wind Dir Waves Ship Positions

Kristin D

Last reported at 2015-May-21 15:21 UTC. Time now 2015-May-25 17:38 UTC.
Position N 66°12' E 012°46'.

Length 90 m; draft 4.2 m.

Type: Cargo ship. MMSI: 311003700.

Date/timePositionNaut miles runAvg speedWind from/ knotsBaromVisibWave heightAir tempDewpointWater temp
2015-May-21 15:21N 66°12' E 012°46'7 8.8
2015-May-21 14:33N 66°15' E 012°31'159 9.9
2015-May-20 22:33N 63°58' E 009°21'1410.7
2015-May-20 21:16N 63°44' E 009°16'7 9.4
2015-May-20 20:32N 63°37' E 009°19'1010.0
2015-May-20 19:29N 63°39' E 009°43'1010.5
2015-May-20 18:33N 63°31' E 009°55'10 9.8
2015-May-20 17:33N 63°29' E 010°16'1110.6
2015-May-20 16:33N 63°27' E 010°39'4 4.0
2015-May-20 15:31N 63°25' E 010°47'0 0.0
2015-May-20 14:31N 63°25' E 010°47'0 0.0
2015-May-20 13:31N 63°25' E 010°47'0 0.0
2015-May-20 12:31N 63°25' E 010°47'0 0.0
2015-May-20 11:31N 63°25' E 010°47'0 0.0
2015-May-20 10:31N 63°25' E 010°47'0 0.0
2015-May-20 09:28N 63°25' E 010°47'0 0.0
2015-May-20 08:28N 63°25' E 010°47'0 0.0
2015-May-20 07:31N 63°25' E 010°47'0 0.0
2015-May-20 06:28N 63°25' E 010°47'0 0.0
2015-May-20 05:31N 63°25' E 010°47'0 0.0
2015-May-20 04:31N 63°25' E 010°47'0 0.0
2015-May-20 03:31N 63°25' E 010°47'0 0.0
2015-May-20 02:31N 63°25' E 010°47'0 0.0
2015-May-20 01:28N 63°25' E 010°47'0 0.0
2015-May-20 00:31N 63°25' E 010°47'0 0.0
2015-May-19 23:31N 63°25' E 010°47'0 0.0
2015-May-19 22:31N 63°25' E 010°47'0 0.0
2015-May-19 21:31N 63°25' E 010°47'0 0.0
2015-May-19 20:31N 63°25' E 010°47'0 0.0
2015-May-19 19:31N 63°25' E 010°47'0 0.0
2015-May-19 18:31N 63°25' E 010°47'0 0.0
2015-May-19 17:31N 63°25' E 010°47'0 0.0
2015-May-19 15:31N 63°25' E 010°47'0 0.0
2015-May-19 14:31N 63°25' E 010°47'0 0.0
2015-May-19 13:31N 63°25' E 010°47'0 0.0
2015-May-19 12:34N 63°25' E 010°47'0 0.0
2015-May-19 11:31N 63°25' E 010°47'0 0.0
2015-May-19 10:33N 63°25' E 010°47'0 0.0
2015-May-19 09:30N 63°25' E 010°47'0 0.0
2015-May-19 08:33N 63°25' E 010°47'0 0.0
2015-May-19 07:33N 63°25' E 010°47'0 0.0
2015-May-19 06:30N 63°25' E 010°47'0 0.0
2015-May-19 05:33N 63°25' E 010°47'0 0.0
2015-May-19 04:30N 63°25' E 010°47'0 0.0
2015-May-19 03:33N 63°25' E 010°47'0 0.0
2015-May-19 02:33N 63°25' E 010°47'0 0.0
2015-May-19 01:33N 63°25' E 010°47'0 0.0
2015-May-18 22:18N 63°25' E 010°47'0 0.0
2015-May-18 21:24N 63°25' E 010°47'0 0.0
2015-May-18 20:33N 63°25' E 010°47'0 0.0
2015-May-18 19:30N 63°25' E 010°47'0 0.0
2015-May-18 18:33N 63°25' E 010°47'7 6.8
2015-May-18 17:33N 63°28' E 010°33'8 7.9
2015-May-18 16:33N 63°28' E 010°16'10 9.7
2015-May-18 15:33N 63°30' E 009°54'1110.1
2015-May-18 14:29N 63°39' E 009°42'1010.3
2015-May-18 13:33N 63°35' E 009°24'  
2015-May-16 04:31N 59°13' E 005°02'1010.0
2015-May-16 03:34N 59°07' E 005°17'1010.0
2015-May-16 02:33N 59°03' E 005°35'9 8.6
2015-May-16 01:33N 58°57' E 005°46'0 0.3
2015-May-16 00:31N 58°57' E 005°45'0 0.0
2015-May-15 23:31N 58°57' E 005°45'0 0.0
2015-May-15 22:31N 58°57' E 005°45'0 0.0
2015-May-15 21:31N 58°57' E 005°45'0 0.0
2015-May-15 20:32N 58°57' E 005°45'0 0.0
2015-May-15 19:31N 58°57' E 005°45'0 0.0
2015-May-15 18:31N 58°57' E 005°45'0 0.0
2015-May-15 17:31N 58°57' E 005°45'0 0.0
2015-May-15 16:22N 58°57' E 005°45'0 0.0
2015-May-15 15:22N 58°57' E 005°45'0 0.0
2015-May-15 14:25N 58°57' E 005°45'0 0.0
2015-May-15 13:25N 58°57' E 005°45'0 0.0
2015-May-15 12:25N 58°57' E 005°45'0 0.0
2015-May-15 11:25N 58°57' E 005°45'0 0.0
2015-May-15 10:25N 58°57' E 005°45'0 0.0
2015-May-15 09:28N 58°57' E 005°45'0 0.0
2015-May-15 08:29N 58°57' E 005°45'5 5.1
2015-May-15 07:33N 59°01' E 005°42'8 7.5
2015-May-15 06:33N 58°55' E 005°33'10 9.5
2015-May-15 05:33N 58°47' E 005°23'1610.7
2015-May-15 04:04N 58°32' E 005°35'611.0
2015-May-15 03:31N 58°28' E 005°41'1111.2
2015-May-15 02:34N 58°20' E 005°57'1211.7
2015-May-15 01:33N 58°13' E 006°13'11411.4
2015-May-14 15:32N 57°51' E 009°45'1111.3
2015-May-14 14:33N 57°50' E 010°06'1110.9
2015-May-14 13:33N 57°49' E 010°26'1110.5
2015-May-14 12:33N 57°48' E 010°46'1110.7
2015-May-14 11:33N 57°41' E 011°01'1211.5
2015-May-14 10:33N 57°33' E 011°16'1111.3
2015-May-14 09:33N 57°24' E 011°28'1211.6
2015-May-14 08:33N 57°13' E 011°36'1312.3
2015-May-14 07:31N 57°01' E 011°43'1111.7
2015-May-14 06:33N 56°50' E 011°51'1111.1
2015-May-14 05:33N 56°40' E 011°56'1110.7
2015-May-14 04:33N 56°30' E 012°04'1111.0
2015-May-14 03:31N 56°20' E 012°15'1111.2
2015-May-14 02:33N 56°12' E 012°27'1110.7
2015-May-14 01:33N 56°04' E 012°39'1110.5
2015-May-14 00:33N 55°53' E 012°44'1110.9
2015-May-13 23:33N 55°43' E 012°41'1110.9
2015-May-13 22:33N 55°32' E 012°43'1111.5
2015-May-13 21:33N 55°20' E 012°41'10 9.8
2015-May-13 20:33N 55°16' E 012°56'1010.2
2015-May-13 19:33N 55°16' E 013°14'10 9.6
2015-May-13 18:33N 55°19' E 013°30'13 0.7
2015-May-13 01:26N 55°26' E 013°49'2 0.2
2015-May-12 16:34N 55°24' E 013°49'5 5.4
2015-May-12 15:33N 55°18' E 013°50'9 9.4
2015-May-12 14:33N 55°09' E 013°53'1212.3
2015-May-12 13:33N 54°57' E 013°57'1212.4
2015-May-12 12:34N 54°45' E 014°03'1212.4
2015-May-12 11:33N 54°33' E 014°06'1212.4
2015-May-12 10:33N 54°21' E 014°10'1212.3
2015-May-12 09:33N 54°09' E 014°13'1111.1
2015-May-12 08:33N 53°58' E 014°16'8 7.5
2015-May-12 07:27N 53°49' E 014°19'1011.3
2015-May-12 06:33N 53°42' E 014°30'1110.6
2015-May-12 05:33N 53°32' E 014°38'7 6.6
2015-May-12 04:33N 53°26' E 014°35'0 0.0
2015-May-12 03:33N 53°26' E 014°35'0 0.0
2015-May-12 02:33N 53°26' E 014°35'0 0.0
2015-May-12 01:33N 53°26' E 014°35'0 0.0
2015-May-12 00:33N 53°26' E 014°35'0 0.0
2015-May-11 23:33N 53°26' E 014°35'0 0.0
2015-May-11 22:33N 53°26' E 014°35'0 0.0
2015-May-11 21:33N 53°26' E 014°35'0 0.0
2015-May-11 20:33N 53°26' E 014°35'0 0.0
2015-May-11 19:33N 53°26' E 014°35'0 0.0
2015-May-11 18:33N 53°26' E 014°35'0 0.0
2015-May-11 17:33N 53°26' E 014°35'0 0.0
2015-May-11 16:33N 53°26' E 014°35'0 0.0
2015-May-11 15:33N 53°26' E 014°35'  

Dump ship's entire track history